createdAt,value
2022-12-16T00:01:11.115Z,41.95
2022-12-16T00:03:41.411Z,39.67
2022-12-16T00:06:10.303Z,40.35
2022-12-16T00:08:39.721Z,38.22
2022-12-16T00:11:08.671Z,38.60
2022-12-16T00:13:38.254Z,38.30
2022-12-16T00:16:07.894Z,39.30
2022-12-16T00:18:36.772Z,38.20
2022-12-16T00:21:06.692Z,38.08
2022-12-16T00:23:35.707Z,36.10
2022-12-16T00:26:04.167Z,37.55
2022-12-16T00:28:32.585Z,38.17
2022-12-16T00:31:00.902Z,35.80
2022-12-16T00:33:29.443Z,39.33
2022-12-16T00:35:58.220Z,42.17
2022-12-16T00:38:28.251Z,42.15
2022-12-16T00:40:56.346Z,39.10
2022-12-16T00:43:24.521Z,40.05
2022-12-16T00:45:52.582Z,39.30
2022-12-16T00:48:22.883Z,40.30
2022-12-16T00:50:51.986Z,41.25
2022-12-16T00:53:20.440Z,39.75
2022-12-16T00:55:52.386Z,39.33
2022-12-16T00:58:21.694Z,40.72
2022-12-16T01:00:52.510Z,41.50
2022-12-16T01:03:22.012Z,41.72
2022-12-16T01:05:50.393Z,38.80
2022-12-16T01:08:18.630Z,39.97
2022-12-16T01:10:52.960Z,40.60
2022-12-16T01:13:25.117Z,41.97
2022-12-16T01:15:53.346Z,41.00
2022-12-16T01:18:22.026Z,40.40
2022-12-16T01:20:50.054Z,41.30
2022-12-16T01:23:18.710Z,41.72
2022-12-16T01:25:46.715Z,39.35
2022-12-16T01:28:16.015Z,40.63
2022-12-16T01:30:44.020Z,40.22
2022-12-16T01:33:12.295Z,39.90
2022-12-16T01:35:56.259Z,39.22
2022-12-16T01:38:24.752Z,38.45
2022-12-16T01:40:52.849Z,39.45
2022-12-16T01:43:26.797Z,40.97
2022-12-16T01:45:58.217Z,38.40
2022-12-16T01:48:35.266Z,37.78
2022-12-16T01:51:06.209Z,37.25
2022-12-16T01:53:35.337Z,37.63
2022-12-16T01:56:23.599Z,37.65
2022-12-16T01:58:53.439Z,35.38
2022-12-16T02:03:53.479Z,33.83
2022-12-16T02:06:22.458Z,37.95
2022-12-16T02:08:54.954Z,37.85
2022-12-16T02:11:33.437Z,35.88
2022-12-16T02:14:20.363Z,35.28
2022-12-16T02:16:53.802Z,36.78
2022-12-16T02:19:43.101Z,35.40
2022-12-16T02:22:16.544Z,37.88
2022-12-16T02:24:59.309Z,35.22
2022-12-16T02:27:51.073Z,35.15
2022-12-16T02:30:39.968Z,40.08
2022-12-16T02:33:18.212Z,39.90
2022-12-16T02:35:51.608Z,39.78
2022-12-16T02:38:27.339Z,38.20
2022-12-16T02:41:01.550Z,39.53
2022-12-16T02:43:45.623Z,38.28
2022-12-16T02:46:15.055Z,35.13
2022-12-16T02:48:43.034Z,39.95
2022-12-16T02:51:11.326Z,39.08
2022-12-16T02:53:40.036Z,37.80
2022-12-16T02:56:19.511Z,38.08
2022-12-16T02:58:52.910Z,39.13
2022-12-16T03:01:27.866Z,38.33
2022-12-16T03:04:01.387Z,36.35
2022-12-16T03:06:31.720Z,37.60
2022-12-16T03:09:01.137Z,37.97
2022-12-16T03:11:30.858Z,37.72
2022-12-16T03:13:59.094Z,36.65
2022-12-16T03:16:31.611Z,36.88
2022-12-16T03:19:02.720Z,38.28
2022-12-16T03:21:33.420Z,39.63
2022-12-16T03:24:03.069Z,39.60
2022-12-16T03:26:34.462Z,36.83
2022-12-16T03:29:05.120Z,36.05
2022-12-16T03:31:38.456Z,40.00
2022-12-16T03:34:11.368Z,38.38
2022-12-16T03:36:40.412Z,37.83
2022-12-16T03:39:09.254Z,38.47
2022-12-16T03:41:37.829Z,37.05
2022-12-16T03:44:06.094Z,39.70
2022-12-16T03:46:35.435Z,38.28
2022-12-16T03:49:03.470Z,38.13
2022-12-16T03:51:31.471Z,36.90
2022-12-16T03:53:59.499Z,37.38
2022-12-16T03:56:27.603Z,37.70
2022-12-16T03:58:55.566Z,37.28
2022-12-16T04:01:24.285Z,36.40
2022-12-16T04:03:53.743Z,35.10
2022-12-16T04:06:21.868Z,35.05
2022-12-16T04:08:49.793Z,38.08
2022-12-16T04:11:35.611Z,36.03
2022-12-16T04:14:21.538Z,37.90
2022-12-16T04:17:07.355Z,35.80
2022-12-16T04:19:55.886Z,37.90
2022-12-16T04:22:43.744Z,34.45
2022-12-16T04:25:15.331Z,35.17
2022-12-16T04:27:47.149Z,38.65
2022-12-16T04:30:22.082Z,38.38
2022-12-16T04:33:11.093Z,36.78
2022-12-16T04:35:58.555Z,36.50
2022-12-16T04:38:44.453Z,38.03
2022-12-16T04:41:38.495Z,37.88
2022-12-16T04:44:24.498Z,37.85
2022-12-16T04:47:10.396Z,38.13
2022-12-16T04:50:01.590Z,38.95
2022-12-16T04:52:50.950Z,36.88
2022-12-16T04:55:36.712Z,38.20
2022-12-16T04:58:22.475Z,36.97
2022-12-16T05:01:13.785Z,38.13
2022-12-16T05:03:59.594Z,37.97
2022-12-16T05:06:45.540Z,37.25
2022-12-16T05:09:32.556Z,39.28
2022-12-16T05:12:18.392Z,38.08
2022-12-16T05:15:04.161Z,35.15
2022-12-16T05:17:49.963Z,35.95
2022-12-16T05:20:35.764Z,35.47
2022-12-16T05:23:21.235Z,37.45
2022-12-16T05:26:08.309Z,37.85
2022-12-16T05:28:54.161Z,36.20
2022-12-16T05:31:39.843Z,36.22
2022-12-16T05:34:26.946Z,38.10
2022-12-16T05:37:08.895Z,36.03
2022-12-16T05:39:54.120Z,36.85
2022-12-16T05:42:41.183Z,33.60
2022-12-16T05:45:27.417Z,36.88
2022-12-16T05:48:12.634Z,33.38
2022-12-16T05:50:58.182Z,34.45
2022-12-16T05:53:58.281Z,35.00
2022-12-16T05:56:43.595Z,35.40
2022-12-16T05:59:39.024Z,36.83
2022-12-16T06:02:24.453Z,34.08
2022-12-16T06:05:09.715Z,34.65
2022-12-16T06:07:55.042Z,35.00
2022-12-16T06:10:49.290Z,35.20
2022-12-16T06:13:34.816Z,36.75
2022-12-16T06:16:21.737Z,35.97
2022-12-16T06:19:07.497Z,34.47
2022-12-16T06:21:53.011Z,33.78
2022-12-16T06:24:38.993Z,33.00
2022-12-16T06:27:24.361Z,33.85
2022-12-16T06:30:10.029Z,33.78
2022-12-16T06:32:57.123Z,35.65
2022-12-16T06:35:42.589Z,32.15
2022-12-16T06:38:28.342Z,33.97
2022-12-16T06:41:13.735Z,32.95
2022-12-16T06:43:59.070Z,33.75
2022-12-16T06:46:44.521Z,32.92
2022-12-16T06:49:31.594Z,32.92
2022-12-16T06:52:16.844Z,33.97
2022-12-16T06:55:02.624Z,34.58
2022-12-16T06:57:48.568Z,33.95
2022-12-16T07:00:34.483Z,33.60
2022-12-16T07:03:20.054Z,35.53
2022-12-16T07:06:11.299Z,36.42
2022-12-16T07:08:56.785Z,38.13
2022-12-16T07:11:47.867Z,38.45
2022-12-16T07:14:33.195Z,38.50
2022-12-16T07:17:18.641Z,37.38
2022-12-16T07:20:04.213Z,34.90
2022-12-16T07:22:58.500Z,37.03
2022-12-16T07:25:55.437Z,41.55
2022-12-16T07:28:40.929Z,41.75
2022-12-16T07:31:26.592Z,48.92
2022-12-16T07:34:12.351Z,51.63
2022-12-16T07:36:57.700Z,56.40
2022-12-16T07:39:46.758Z,51.88
2022-12-16T07:42:35.795Z,43.05
2022-12-16T07:45:21.911Z,47.05
2022-12-16T07:48:08.343Z,42.40
2022-12-16T07:50:54.575Z,48.30
2022-12-16T07:53:41.917Z,48.20
2022-12-16T07:56:29.016Z,49.75
2022-12-16T07:59:15.611Z,46.80
2022-12-16T08:02:01.143Z,51.38
2022-12-16T08:04:47.222Z,46.40
2022-12-16T08:07:32.902Z,44.08
2022-12-16T08:10:18.768Z,43.03
2022-12-16T08:13:05.709Z,40.80
2022-12-16T08:15:50.977Z,45.00
2022-12-16T08:18:36.767Z,44.15
2022-12-16T08:21:22.640Z,38.55
2022-12-16T08:24:07.898Z,40.85
2022-12-16T08:26:53.245Z,40.85
2022-12-16T08:29:45.245Z,39.55
2022-12-16T08:32:36.722Z,37.90
2022-12-16T08:35:23.048Z,37.60
2022-12-16T08:38:13.678Z,37.50
2022-12-16T08:40:59.917Z,38.63
2022-12-16T08:43:45.666Z,41.60
2022-12-16T08:46:32.785Z,41.38
2022-12-16T08:49:18.520Z,41.22
2022-12-16T08:52:03.877Z,43.72
2022-12-16T08:54:49.944Z,45.13
2022-12-16T08:57:37.489Z,47.58
2022-12-16T09:00:23.714Z,47.92
2022-12-16T09:03:13.934Z,40.70
2022-12-16T09:06:00.407Z,42.17
2022-12-16T09:08:46.258Z,41.70
2022-12-16T09:11:31.550Z,40.80
2022-12-16T09:14:22.798Z,41.53
2022-12-16T09:17:08.147Z,39.70
2022-12-16T09:19:56.050Z,37.20
2022-12-16T09:22:41.656Z,38.78
2022-12-16T09:25:27.226Z,36.78
2022-12-16T09:28:12.532Z,37.10
2022-12-16T09:30:58.062Z,37.65
2022-12-16T09:33:43.909Z,36.30
2022-12-16T09:36:30.844Z,36.97
2022-12-16T09:39:16.217Z,36.45
2022-12-16T09:42:02.598Z,38.67
2022-12-16T09:45:06.203Z,38.25
2022-12-16T09:47:57.305Z,36.83
2022-12-16T09:50:45.117Z,38.45
2022-12-16T09:53:34.779Z,37.03
2022-12-16T09:56:21.586Z,39.10
2022-12-16T09:59:10.623Z,40.15
2022-12-16T10:01:57.155Z,39.95
2022-12-16T10:04:43.452Z,38.72
2022-12-16T10:07:35.029Z,42.78
2022-12-16T10:10:36.307Z,41.33
2022-12-16T10:13:26.238Z,41.65
2022-12-16T10:16:17.263Z,40.65
2022-12-16T10:19:10.496Z,42.85
2022-12-16T10:22:02.001Z,41.50
2022-12-16T10:24:53.535Z,41.05
2022-12-16T10:27:44.860Z,41.05
2022-12-16T10:30:31.633Z,44.00
2022-12-16T10:33:17.695Z,44.22
2022-12-16T10:36:05.760Z,40.80
2022-12-16T10:38:56.638Z,41.45
2022-12-16T10:41:45.346Z,40.38
2022-12-16T10:44:41.041Z,40.80
2022-12-16T10:47:28.373Z,39.72
2022-12-16T10:50:14.490Z,38.88
2022-12-16T10:53:11.595Z,40.30
2022-12-16T10:56:10.846Z,38.85
2022-12-16T10:59:03.355Z,38.10
2022-12-16T11:01:50.640Z,39.83
2022-12-16T11:04:50.681Z,41.42
2022-12-16T11:07:45.629Z,40.03
2022-12-16T11:10:45.793Z,40.40
2022-12-16T11:13:36.517Z,39.35
2022-12-16T11:16:28.721Z,39.35
2022-12-16T11:19:15.885Z,39.00
2022-12-16T11:22:01.666Z,36.80
2022-12-16T11:24:47.508Z,37.95
2022-12-16T11:27:35.539Z,39.47
2022-12-16T11:30:23.295Z,40.10
2022-12-16T11:33:11.553Z,40.90
2022-12-16T11:36:00.507Z,41.80
2022-12-16T11:38:50.004Z,41.53
2022-12-16T11:41:44.146Z,41.08
2022-12-16T11:44:37.393Z,39.33
2022-12-16T11:47:27.602Z,39.33
2022-12-16T11:50:14.987Z,41.47
2022-12-16T11:53:09.082Z,40.95
2022-12-16T11:56:05.895Z,40.45
2022-12-16T11:59:00.911Z,38.15
2022-12-16T12:01:50.840Z,39.45
2022-12-16T12:04:36.998Z,40.45
2022-12-16T12:07:32.656Z,41.75
2022-12-16T12:10:25.157Z,39.55
2022-12-16T12:13:14.039Z,41.63
2022-12-16T12:16:03.620Z,43.80
2022-12-16T12:18:56.671Z,40.08
2022-12-16T12:21:46.888Z,39.88
2022-12-16T12:24:42.392Z,42.42
2022-12-16T12:27:35.360Z,40.67
2022-12-16T12:30:23.940Z,42.35
2022-12-16T12:33:19.523Z,39.70
2022-12-16T12:36:15.460Z,41.60
2022-12-16T12:39:11.457Z,41.40
2022-12-16T12:42:11.069Z,40.65
2022-12-16T12:45:05.517Z,41.42
2022-12-16T12:47:48.359Z,42.72
2022-12-16T12:50:40.784Z,42.88
2022-12-16T12:56:23.697Z,41.10
2022-12-16T12:59:10.446Z,43.30
2022-12-16T13:01:59.757Z,43.70
2022-12-16T13:04:46.286Z,43.17
2022-12-16T13:07:32.145Z,41.28
2022-12-16T13:10:46.042Z,42.85
2022-12-16T13:13:50.364Z,41.03
2022-12-16T13:17:25.877Z,40.70
2022-12-16T13:20:14.559Z,38.65
2022-12-16T13:23:00.709Z,39.30
2022-12-16T13:25:51.303Z,41.70
2022-12-16T13:28:47.133Z,39.17
2022-12-16T13:31:33.057Z,40.97
2022-12-16T13:34:23.880Z,40.80
2022-12-16T13:37:19.509Z,43.50
2022-12-16T13:40:20.351Z,43.25
2022-12-16T13:43:11.465Z,43.92
2022-12-16T13:45:59.960Z,43.05
2022-12-16T13:48:56.133Z,41.50
2022-12-16T13:52:24.266Z,40.08
2022-12-16T13:55:25.172Z,41.67
2022-12-16T13:58:13.547Z,40.78
2022-12-16T14:01:00.515Z,43.53
2022-12-16T14:03:57.084Z,41.20
2022-12-16T14:06:44.677Z,41.20
2022-12-16T14:09:44.526Z,41.42
2022-12-16T14:12:40.840Z,41.25
2022-12-16T14:15:37.984Z,41.95
2022-12-16T14:18:33.202Z,41.80
2022-12-16T14:21:22.432Z,40.13
2022-12-16T14:24:12.770Z,39.75
2022-12-16T14:26:58.765Z,41.20
2022-12-16T14:29:45.994Z,43.15
2022-12-16T14:32:40.146Z,40.63
2022-12-16T14:35:31.203Z,42.20
2022-12-16T14:38:17.097Z,42.10
2022-12-16T14:41:08.943Z,40.17
2022-12-16T14:43:57.782Z,41.28
2022-12-16T14:46:47.427Z,41.47
2022-12-16T14:49:38.809Z,41.88
2022-12-16T14:52:49.389Z,43.57
2022-12-16T14:55:37.300Z,42.15
2022-12-16T14:58:24.481Z,42.40
2022-12-16T15:01:15.552Z,44.03
2022-12-16T15:04:10.388Z,44.10
2022-12-16T15:06:58.705Z,42.15
2022-12-16T15:09:46.839Z,42.30
2022-12-16T15:12:34.797Z,44.50
2022-12-16T15:15:22.589Z,41.90
2022-12-16T15:18:09.448Z,42.92
2022-12-16T15:21:01.339Z,43.67
2022-12-16T15:23:51.291Z,42.00
2022-12-16T15:26:38.720Z,44.35
2022-12-16T15:29:46.091Z,45.50
2022-12-16T15:32:48.238Z,42.25
2022-12-16T15:35:44.933Z,43.03
2022-12-16T15:38:37.391Z,44.13
2022-12-16T15:41:24.478Z,44.72
2022-12-16T15:44:10.781Z,46.33
2022-12-16T15:46:56.613Z,46.10
2022-12-16T15:50:04.046Z,45.95
2022-12-16T15:52:54.070Z,45.95
2022-12-16T15:55:50.741Z,44.20
2022-12-16T15:58:40.802Z,44.60
2022-12-16T16:01:35.560Z,45.38
2022-12-16T16:04:21.889Z,47.92
2022-12-16T16:07:09.350Z,48.28
2022-12-16T16:09:56.304Z,50.33
2022-12-16T16:12:43.886Z,53.38
2022-12-16T16:15:31.346Z,50.47
2022-12-16T16:18:18.886Z,49.58
2022-12-16T16:21:04.980Z,46.83
2022-12-16T16:23:50.809Z,46.45
2022-12-16T16:26:38.626Z,46.58
2022-12-16T16:29:25.869Z,46.83
2022-12-16T16:32:11.688Z,47.58
2022-12-16T16:35:12.193Z,49.40
2022-12-16T16:37:58.102Z,47.75
2022-12-16T16:40:53.911Z,47.35
2022-12-16T16:43:40.149Z,47.95
2022-12-16T16:46:37.439Z,47.25
2022-12-16T16:49:23.300Z,48.28
2022-12-16T16:52:09.164Z,48.67
2022-12-16T16:54:54.961Z,48.33
2022-12-16T16:57:40.483Z,46.92
2022-12-16T17:00:29.221Z,47.75
2022-12-16T17:03:28.116Z,45.53
2022-12-16T17:06:10.493Z,49.53
2022-12-16T17:11:52.776Z,47.83
2022-12-16T17:14:39.149Z,49.78
2022-12-16T17:17:25.453Z,53.40
2022-12-16T17:20:12.468Z,53.28
2022-12-16T17:22:58.184Z,52.58
2022-12-16T17:25:43.847Z,51.78
2022-12-16T17:28:30.275Z,54.90
2022-12-16T17:31:16.127Z,51.75
2022-12-16T17:34:02.079Z,55.97
2022-12-16T17:36:57.528Z,53.65
2022-12-16T17:39:43.418Z,53.83
2022-12-16T17:42:29.022Z,54.65
2022-12-16T17:45:14.662Z,52.40
2022-12-16T17:48:05.877Z,53.65
2022-12-16T17:50:51.657Z,53.13
2022-12-16T17:53:38.699Z,50.88
2022-12-16T17:56:24.452Z,53.55
2022-12-16T17:59:11.305Z,50.90
2022-12-16T18:01:56.831Z,50.15
2022-12-16T18:04:42.738Z,52.10
2022-12-16T18:07:28.341Z,50.65
2022-12-16T18:10:15.318Z,52.45
2022-12-16T18:13:01.128Z,50.03
2022-12-16T18:15:46.494Z,51.97
2022-12-16T18:18:32.384Z,51.20
2022-12-16T18:21:27.366Z,51.38
2022-12-16T18:24:13.241Z,51.72
2022-12-16T18:27:00.500Z,51.33
2022-12-16T18:29:46.465Z,52.85
2022-12-16T18:32:35.279Z,50.50
2022-12-16T18:35:31.042Z,50.28
2022-12-16T18:38:19.739Z,51.40
2022-12-16T18:41:06.995Z,50.00
2022-12-16T18:43:56.164Z,52.38
2022-12-16T18:46:44.607Z,55.67
2022-12-16T18:49:30.575Z,53.88
2022-12-16T18:52:16.409Z,57.88
2022-12-16T18:55:01.990Z,61.38
2022-12-16T18:57:50.345Z,62.70
2022-12-16T19:00:37.727Z,64.18
2022-12-16T19:03:23.786Z,63.55
2022-12-16T19:06:12.605Z,59.40
2022-12-16T19:08:58.419Z,56.67
2022-12-16T19:11:46.015Z,54.55
2022-12-16T19:14:33.738Z,55.13
2022-12-16T19:17:21.259Z,52.15
2022-12-16T19:20:12.670Z,50.20
2022-12-16T19:23:02.871Z,48.28
2022-12-16T19:25:48.883Z,51.10
2022-12-16T19:28:40.576Z,51.40
2022-12-16T19:31:32.660Z,49.28
2022-12-16T19:34:22.846Z,49.97
2022-12-16T19:37:08.694Z,51.80
2022-12-16T19:39:56.813Z,49.97
2022-12-16T19:42:42.852Z,49.88
2022-12-16T19:45:28.824Z,49.58
2022-12-16T19:48:19.262Z,49.13
2022-12-16T19:51:06.307Z,46.85
2022-12-16T19:53:52.156Z,52.33
2022-12-16T19:56:37.950Z,51.35
2022-12-16T19:59:23.739Z,51.28
2022-12-16T20:02:09.649Z,48.55
2022-12-16T20:04:56.192Z,47.58
2022-12-16T20:07:43.458Z,49.53
2022-12-16T20:10:29.634Z,49.45
2022-12-16T20:16:32.510Z,48.70
2022-12-16T20:19:18.061Z,48.92
2022-12-16T20:22:06.808Z,51.28
2022-12-16T20:24:56.374Z,51.95
2022-12-16T20:27:42.482Z,54.17
2022-12-16T20:30:29.779Z,56.53
2022-12-16T20:33:15.697Z,54.72
2022-12-16T20:36:01.021Z,52.10
2022-12-16T20:38:46.833Z,52.42
2022-12-16T20:41:33.715Z,51.53
2022-12-16T20:44:19.580Z,49.80
2022-12-16T20:47:04.947Z,50.10
2022-12-16T20:50:05.084Z,49.47
2022-12-16T20:52:50.640Z,48.38
2022-12-16T20:55:37.240Z,45.95
2022-12-16T20:58:24.466Z,50.72
2022-12-16T21:01:10.830Z,48.95
2022-12-16T21:03:56.481Z,50.28
2022-12-16T21:06:42.241Z,48.13
2022-12-16T21:09:28.056Z,48.30
2022-12-16T21:12:18.457Z,48.33
2022-12-16T21:15:05.522Z,49.35
2022-12-16T21:17:51.103Z,48.38
2022-12-16T21:20:37.687Z,49.60
2022-12-16T21:23:24.494Z,48.35
2022-12-16T21:26:10.214Z,51.42
2022-12-16T21:28:56.292Z,49.10
2022-12-16T21:31:43.681Z,46.83
2022-12-16T21:34:30.450Z,49.05
2022-12-16T21:37:15.931Z,47.83
2022-12-16T21:40:01.801Z,48.38
2022-12-16T21:42:47.701Z,49.78
2022-12-16T21:45:33.537Z,50.78
2022-12-16T21:48:20.596Z,49.35
2022-12-16T21:51:09.107Z,50.47
2022-12-16T21:53:55.458Z,51.90
2022-12-16T21:56:42.293Z,50.53
2022-12-16T21:59:27.883Z,50.33
2022-12-16T22:02:13.505Z,49.05
2022-12-16T22:05:00.263Z,51.28
2022-12-16T22:07:46.403Z,54.17
2022-12-16T22:10:32.189Z,54.15
2022-12-16T22:13:18.033Z,52.28
2022-12-16T22:16:13.361Z,55.47
2022-12-16T22:18:58.981Z,51.95
2022-12-16T22:21:46.042Z,49.88
2022-12-16T22:24:31.706Z,51.13
2022-12-16T22:27:17.667Z,54.60
2022-12-16T22:30:03.734Z,53.08
2022-12-16T22:32:49.761Z,53.08
2022-12-16T22:35:35.487Z,55.47
2022-12-16T22:38:22.627Z,54.58
2022-12-16T22:41:13.346Z,54.83
2022-12-16T22:44:01.400Z,56.10
2022-12-16T22:46:47.040Z,51.95
2022-12-16T22:49:32.952Z,54.75
2022-12-16T22:52:18.492Z,54.13
2022-12-16T22:55:06.082Z,54.58
2022-12-16T22:57:53.368Z,54.60
2022-12-16T23:00:39.497Z,56.15
2022-12-16T23:03:25.553Z,53.47
2022-12-16T23:06:11.473Z,55.47
2022-12-16T23:08:57.384Z,53.10
2022-12-16T23:11:51.163Z,53.40
2022-12-16T23:14:42.646Z,54.85
2022-12-16T23:17:29.210Z,53.90
2022-12-16T23:20:15.021Z,51.83
2022-12-16T23:23:00.791Z,53.00
2022-12-16T23:25:46.441Z,53.72
2022-12-16T23:28:33.184Z,51.55
2022-12-16T23:31:19.020Z,52.95
2022-12-16T23:34:04.921Z,53.72
2022-12-16T23:36:50.387Z,52.67
2022-12-16T23:39:36.068Z,53.25
2022-12-16T23:42:21.495Z,55.33
2022-12-16T23:45:08.623Z,52.35
2022-12-16T23:47:55.541Z,52.72
2022-12-16T23:50:42.295Z,52.05
2022-12-16T23:53:29.167Z,51.15
2022-12-16T23:56:15.257Z,48.50
2022-12-16T23:59:01.016Z,50.17
